River Corners, Ohio
Current Conditions -  °F | °C
As of 3:20 AM on Tuesday 27 Jan 2015 (Local Time) from KLPR Reporting Station
Overcast Overcast  
Wind Chill:   Ceiling: 2100
Heat Index: 18°   Visibility: 8mi
Dew Point: 16°   Wind: 9mph
Humidity: 92%   Direction: 20°NNE
Pressure: 29.94"   Gusts: NA
Location:  41.1001°N, 82.0965°W
Report Text: KLPR 270820Z AUTO 02008KT 8SM SCT008 BKN021 OVC028 M08/M09 A2994 RMK AO2 SNE0759 P0000 T10781089 TSNO
Loading
Personal Weather Stations






























Interactive Weather Map New forecast layout! Learn more

10-Day Weather Forecast

Advertisements
Track Severe Weather on mobile